createdAt,value
2017-11-07T00:00:10.751Z,93.50
2017-11-07T00:02:38.236Z,93.50
2017-11-07T00:05:06.476Z,93.60
2017-11-07T00:07:33.972Z,93.60
2017-11-07T00:10:02.220Z,93.70
2017-11-07T00:12:29.940Z,93.60
2017-11-07T00:14:57.417Z,93.80
2017-11-07T00:17:24.907Z,93.70
2017-11-07T00:19:52.380Z,93.80
2017-11-07T00:22:20.625Z,94.00
2017-11-07T00:24:48.219Z,94.00
2017-11-07T00:27:16.464Z,94.00
2017-11-07T00:29:43.947Z,94.00
2017-11-07T00:32:12.196Z,94.10
2017-11-07T00:34:39.689Z,94.10
2017-11-07T00:37:07.936Z,94.30
2017-11-07T00:39:35.407Z,94.30
2017-11-07T00:42:02.900Z,94.40
2017-11-07T00:44:30.375Z,94.40
2017-11-07T00:46:57.872Z,94.40
2017-11-07T00:49:25.354Z,94.40
2017-11-07T00:51:53.617Z,94.60
2017-11-07T00:54:21.093Z,94.60
2017-11-07T00:56:49.332Z,94.60
2017-11-07T00:59:16.831Z,94.60
2017-11-07T01:01:45.095Z,94.60
2017-11-07T01:04:13.347Z,94.60
2017-11-07T01:06:40.820Z,94.60
2017-11-07T01:09:09.096Z,94.90
2017-11-07T01:11:36.576Z,94.90
2017-11-07T01:14:04.824Z,94.90
2017-11-07T01:16:32.323Z,94.80
2017-11-07T01:18:59.821Z,95.00
2017-11-07T01:21:27.311Z,95.00
2017-11-07T01:23:54.780Z,95.00
2017-11-07T01:26:23.036Z,95.20
2017-11-07T01:28:50.507Z,95.20
2017-11-07T01:31:18.762Z,95.30
2017-11-07T01:33:46.248Z,95.30
2017-11-07T01:36:14.492Z,95.10
2017-11-07T01:38:42.031Z,95.10
2017-11-07T01:41:09.503Z,94.40
2017-11-07T01:43:36.972Z,94.40
2017-11-07T09:00:15.159Z,93.00
2017-11-07T09:02:42.662Z,93.00
2017-11-07T09:05:11.015Z,92.30
2017-11-07T09:07:38.493Z,92.30
2017-11-07T09:10:06.765Z,92.10
2017-11-07T09:12:35.008Z,92.20
2017-11-07T09:15:02.509Z,92.40
2017-11-07T09:17:30.773Z,91.70
2017-11-07T09:19:59.048Z,91.70
2017-11-07T09:22:27.292Z,92.10
2017-11-07T09:24:54.775Z,91.80
2017-11-07T09:27:22.355Z,92.00
2017-11-07T09:29:50.604Z,92.00
2017-11-07T09:32:18.100Z,92.00
2017-11-07T09:34:45.580Z,91.50
2017-11-07T09:37:13.083Z,91.30
2017-11-07T09:39:40.566Z,90.50
2017-11-07T09:42:08.809Z,90.20
2017-11-07T09:44:36.326Z,90.20
2017-11-07T09:47:03.799Z,90.00
2017-11-07T09:49:31.316Z,89.70
2017-11-07T09:51:59.565Z,89.80
2017-11-07T09:54:27.094Z,89.70
2017-11-07T09:56:54.567Z,89.20
2017-11-07T09:59:22.048Z,89.10
2017-11-07T10:01:49.569Z,89.10
2017-11-07T10:04:17.086Z,88.60
2017-11-07T10:06:45.348Z,87.30
2017-11-07T10:09:12.824Z,87.30
2017-11-07T10:11:41.095Z,87.30
2017-11-07T10:14:09.352Z,87.90
2017-11-07T10:16:36.827Z,87.80
2017-11-07T10:19:05.084Z,86.70
2017-11-07T10:21:32.563Z,86.60
2017-11-07T10:24:00.828Z,87.10
2017-11-07T10:26:28.316Z,87.10
2017-11-07T10:28:55.863Z,86.10
2017-11-07T10:31:24.111Z,86.50
2017-11-07T10:33:51.608Z,86.50
2017-11-07T10:36:19.184Z,87.40
2017-11-07T10:38:46.683Z,85.70
2017-11-07T10:41:14.190Z,85.60
2017-11-07T10:43:41.669Z,86.70
2017-11-07T10:46:09.171Z,85.80
2017-11-07T10:48:37.429Z,85.00
2017-11-07T10:51:04.907Z,84.80
2017-11-07T10:53:32.393Z,85.80
2017-11-07T10:56:00.752Z,85.10
2017-11-07T10:58:29.012Z,86.90
2017-11-07T11:00:56.479Z,86.20
2017-11-07T11:03:24.156Z,86.50
2017-11-07T11:05:52.408Z,85.80
2017-11-07T11:08:19.900Z,85.70
2017-11-07T11:10:48.170Z,86.50
2017-11-07T11:13:16.790Z,86.30
2017-11-07T11:15:44.295Z,86.30
2017-11-07T11:18:11.771Z,86.20
2017-11-07T11:20:40.146Z,85.00
2017-11-07T11:23:08.405Z,85.60
2017-11-07T11:25:35.888Z,85.60
2017-11-07T11:28:04.156Z,85.30
2017-11-07T11:30:32.396Z,85.20
2017-11-07T11:32:59.895Z,85.10
2017-11-07T11:35:28.132Z,86.00
2017-11-07T11:37:55.648Z,86.00
2017-11-07T11:40:23.117Z,85.80
2017-11-07T11:42:50.640Z,86.00
2017-11-07T11:45:18.891Z,86.00
2017-11-07T11:47:46.412Z,86.00
2017-11-07T11:50:13.892Z,86.00
2017-11-07T11:52:41.359Z,85.70
2017-11-07T11:55:08.851Z,86.00
2017-11-07T11:57:37.096Z,86.10
2017-11-07T12:00:04.588Z,86.00
2017-11-07T12:02:32.854Z,85.80
2017-11-07T12:05:01.154Z,86.00
2017-11-07T12:07:29.436Z,85.50
2017-11-07T12:09:56.919Z,85.50
2017-11-07T12:12:24.411Z,84.60
2017-11-07T12:14:51.913Z,84.90
2017-11-07T12:17:19.415Z,84.40
2017-11-07T12:19:46.895Z,84.20
2017-11-07T12:22:14.383Z,84.10
2017-11-07T12:24:41.869Z,84.90
2017-11-07T12:27:09.343Z,85.30
2017-11-07T12:29:36.975Z,85.20
2017-11-07T12:32:04.455Z,86.10
2017-11-07T12:34:31.952Z,85.40
2017-11-07T12:36:59.475Z,85.50
2017-11-07T12:39:26.972Z,85.20
2017-11-07T12:41:54.444Z,84.80
2017-11-07T12:44:22.679Z,85.80
2017-11-07T12:46:50.168Z,85.70
2017-11-07T12:49:18.416Z,86.70
2017-11-07T12:51:57.604Z,86.60
2017-11-07T12:54:25.080Z,86.30
2017-11-07T12:56:52.576Z,86.80
2017-11-07T12:59:20.046Z,86.40
2017-11-07T13:01:47.515Z,86.50
2017-11-07T13:04:15.787Z,86.90
2017-11-07T13:06:44.036Z,87.60
2017-11-07T13:09:11.607Z,87.60
2017-11-07T13:11:39.089Z,86.90
2017-11-07T13:14:07.353Z,86.50
2017-11-07T13:16:34.827Z,86.50
2017-11-07T13:19:03.081Z,87.40
2017-11-07T13:21:30.569Z,87.40
2017-11-07T13:23:58.040Z,87.60
2017-11-07T13:26:25.532Z,87.10
2017-11-07T13:28:53.000Z,86.90
2017-11-07T13:31:26.304Z,87.40
2017-11-07T13:33:54.552Z,87.30
2017-11-07T13:36:22.036Z,87.30
2017-11-07T13:38:49.531Z,87.70
2017-11-07T13:41:17.027Z,87.70
2017-11-07T13:43:44.512Z,87.50
2017-11-07T13:46:11.988Z,87.70
2017-11-07T13:48:40.301Z,87.80
2017-11-07T13:51:07.802Z,87.80
2017-11-07T13:53:35.281Z,88.30
2017-11-07T13:56:03.540Z,88.10
2017-11-07T13:58:31.017Z,88.10
2017-11-07T14:00:59.279Z,88.10
2017-11-07T14:03:26.775Z,88.10
2017-11-07T14:05:54.272Z,88.20
2017-11-07T14:08:21.748Z,87.80
2017-11-07T14:10:49.225Z,87.90
2017-11-07T14:13:17.480Z,87.80
2017-11-07T14:15:44.962Z,88.40
2017-11-07T14:18:13.224Z,88.00
2017-11-07T14:20:40.705Z,88.00
2017-11-07T14:23:08.983Z,88.10
2017-11-07T14:25:37.227Z,87.90
2017-11-07T14:28:04.697Z,87.90
2017-11-07T14:30:32.185Z,88.20
2017-11-07T14:32:59.689Z,88.20
2017-11-07T14:35:27.180Z,88.80
2017-11-07T14:37:55.460Z,89.50
2017-11-07T14:40:23.771Z,88.80
2017-11-07T14:42:51.240Z,88.80
2017-11-07T14:45:18.712Z,89.20
2017-11-07T14:47:46.209Z,88.80
2017-11-07T14:50:14.472Z,88.70
2017-11-07T14:52:41.965Z,88.60
2017-11-07T14:55:10.203Z,89.10
2017-11-07T14:57:37.704Z,89.10
2017-11-07T15:00:05.180Z,89.10
2017-11-07T15:02:32.660Z,88.90
2017-11-07T15:05:00.148Z,89.20
2017-11-07T15:07:27.624Z,89.10
2017-11-07T15:09:55.888Z,90.10
2017-11-07T15:12:24.132Z,89.60
2017-11-07T15:14:51.634Z,89.60
2017-11-07T15:17:19.881Z,89.90
2017-11-07T15:19:47.363Z,89.90
2017-11-07T15:22:15.619Z,89.70
2017-11-07T15:24:43.104Z,89.70
2017-11-07T15:27:11.366Z,90.10
2017-11-07T15:29:39.639Z,90.10
2017-11-07T15:32:07.137Z,90.10
2017-11-07T15:34:34.614Z,90.20
2017-11-07T15:37:02.099Z,90.00
2017-11-07T15:39:29.595Z,90.20
2017-11-07T15:41:57.857Z,90.10
2017-11-07T15:44:26.120Z,90.20
2017-11-07T15:46:53.584Z,90.10
2017-11-07T15:49:21.079Z,90.20
2017-11-07T15:51:48.575Z,90.60
2017-11-07T15:54:16.056Z,90.20
2017-11-07T15:56:43.544Z,90.20
2017-11-07T15:59:11.018Z,90.40
2017-11-07T16:01:38.513Z,90.50
2017-11-07T16:04:05.991Z,90.20
2017-11-07T16:06:33.568Z,90.20
2017-11-07T16:09:01.808Z,90.30
2017-11-07T16:11:29.288Z,90.30
2017-11-07T16:13:57.553Z,90.50
2017-11-07T16:16:25.792Z,90.20
2017-11-07T16:18:53.279Z,90.20
2017-11-07T16:21:20.766Z,90.20
2017-11-07T16:23:49.024Z,90.30
2017-11-07T16:26:16.515Z,90.30
2017-11-07T16:28:44.006Z,90.30
2017-11-07T16:31:11.508Z,90.30
2017-11-07T16:33:38.997Z,90.30
2017-11-07T16:36:06.498Z,90.30
2017-11-07T16:38:34.003Z,90.40
2017-11-07T16:41:02.250Z,90.30
2017-11-07T16:43:29.740Z,90.30
2017-11-07T16:45:57.975Z,90.40
2017-11-07T16:48:25.510Z,90.40
2017-11-07T16:50:53.055Z,90.60
2017-11-07T16:53:20.548Z,90.60
2017-11-07T16:55:48.037Z,90.70
2017-11-07T16:58:16.280Z,90.80
2017-11-07T17:00:44.564Z,90.70
2017-11-07T17:03:12.072Z,90.80
2017-11-07T17:05:39.576Z,90.70
2017-11-07T17:08:07.061Z,90.90
2017-11-07T17:10:35.324Z,90.70
2017-11-07T17:13:02.808Z,90.70
2017-11-07T17:15:31.056Z,91.10
2017-11-07T17:17:58.551Z,90.70
2017-11-07T17:20:26.787Z,91.00
2017-11-07T17:22:54.279Z,91.00
2017-11-07T17:25:22.536Z,90.80
2017-11-07T17:27:50.039Z,90.80
2017-11-07T17:30:17.551Z,90.80
2017-11-07T17:32:45.028Z,90.70
2017-11-07T17:35:13.333Z,90.90
2017-11-07T17:37:40.809Z,90.90
2017-11-07T17:40:08.308Z,90.90
2017-11-07T17:42:36.583Z,91.40
2017-11-07T17:45:04.058Z,91.10
2017-11-07T17:47:32.309Z,91.10
2017-11-07T17:50:00.605Z,91.40
2017-11-07T17:52:28.876Z,91.10
2017-11-07T17:54:57.148Z,91.20
2017-11-07T17:57:25.419Z,91.30
2017-11-07T19:35:54.248Z,93.10
2017-11-07T19:38:21.740Z,93.30
2017-11-07T19:40:49.255Z,93.20
2017-11-07T19:43:16.736Z,93.20
2017-11-07T19:45:44.215Z,93.40
2017-11-07T19:48:12.475Z,92.80
2017-11-07T19:50:39.984Z,92.80
2017-11-07T19:53:07.484Z,92.90
2017-11-07T19:55:34.971Z,92.80
2017-11-07T19:58:03.248Z,92.70
2017-11-07T20:00:31.487Z,93.00
2017-11-07T20:02:58.964Z,92.80
2017-11-07T20:05:26.455Z,92.70
2017-11-07T20:07:54.743Z,92.80
2017-11-07T20:10:22.236Z,92.80
2017-11-07T20:12:49.727Z,92.70
2017-11-07T20:15:17.231Z,92.70
2017-11-07T20:17:44.715Z,92.70
2017-11-07T20:20:12.203Z,92.70
2017-11-07T20:22:39.686Z,92.90
2017-11-07T20:25:07.180Z,92.90
2017-11-07T20:27:34.668Z,93.00
2017-11-07T20:30:02.997Z,93.20
2017-11-07T20:32:30.517Z,93.10
2017-11-07T20:34:58.025Z,93.30
2017-11-07T20:37:25.531Z,93.40
2017-11-07T20:39:54.536Z,93.30
2017-11-07T20:42:22.107Z,93.30
2017-11-07T20:44:50.365Z,93.50
2017-11-07T20:47:18.620Z,93.50
2017-11-07T20:49:46.115Z,93.50
2017-11-07T20:52:13.616Z,93.50
2017-11-07T20:54:41.088Z,93.60
2017-11-07T20:57:08.610Z,93.60
2017-11-07T20:59:36.102Z,93.60
2017-11-07T21:02:03.662Z,93.60
2017-11-07T21:04:31.135Z,93.50
2017-11-07T21:06:58.667Z,93.60
2017-11-07T21:09:26.157Z,93.50
2017-11-07T21:11:53.634Z,93.60
2017-11-07T21:14:21.913Z,93.60
2017-11-07T21:16:50.184Z,93.70
2017-11-07T21:19:18.444Z,93.70
2017-11-07T21:21:45.921Z,93.60
2017-11-07T21:24:14.201Z,93.70
2017-11-07T21:26:42.448Z,93.40
2017-11-07T21:29:09.933Z,93.40
2017-11-07T21:31:38.259Z,93.50
2017-11-07T21:34:05.740Z,93.50
2017-11-07T21:36:33.227Z,93.30
2017-11-07T21:39:01.488Z,93.20
2017-11-07T21:41:29.019Z,93.20
2017-11-07T21:43:56.488Z,93.10
2017-11-07T21:46:23.981Z,93.10
2017-11-07T21:48:52.232Z,93.20
2017-11-07T21:51:19.708Z,93.20
2017-11-07T21:53:47.967Z,93.00
2017-11-07T21:56:15.448Z,93.00
2017-11-07T21:58:43.711Z,93.00
2017-11-07T22:01:12.021Z,92.80
2017-11-07T22:03:39.500Z,92.80
2017-11-07T22:06:06.991Z,93.00
2017-11-07T22:08:34.472Z,92.90
2017-11-07T22:11:02.748Z,92.90
2017-11-07T22:13:30.997Z,92.90
2017-11-07T22:15:58.500Z,92.80
2017-11-07T22:18:26.747Z,93.10
2017-11-07T22:20:54.223Z,93.00
2017-11-07T22:23:26.299Z,92.90
2017-11-07T22:25:53.786Z,92.90
2017-11-07T22:28:21.278Z,92.80
2017-11-07T22:30:48.798Z,92.80
2017-11-07T22:33:16.299Z,92.90
2017-11-07T22:35:43.773Z,92.70
2017-11-07T22:38:12.036Z,92.70
2017-11-07T22:40:39.532Z,92.70
2017-11-07T22:43:07.774Z,92.80
2017-11-07T22:45:35.295Z,92.80
2017-11-07T22:48:02.772Z,92.90
2017-11-07T22:50:30.264Z,92.80
2017-11-07T22:52:58.514Z,93.10
2017-11-07T22:55:25.997Z,93.00
2017-11-07T22:57:53.519Z,93.10
2017-11-07T23:00:21.006Z,93.00
2017-11-07T23:02:48.500Z,93.00
2017-11-07T23:05:15.993Z,92.90
2017-11-07T23:07:43.491Z,93.00
2017-11-07T23:10:11.735Z,93.20
2017-11-07T23:12:39.219Z,93.10
2017-11-07T23:15:06.713Z,93.20
2017-11-07T23:17:34.196Z,93.40
2017-11-07T23:20:01.685Z,93.40
2017-11-07T23:22:29.159Z,93.40
2017-11-07T23:24:57.439Z,93.60
2017-11-07T23:27:25.693Z,93.60
2017-11-07T23:29:53.172Z,93.60
2017-11-07T23:32:21.428Z,93.60
2017-11-07T23:34:48.941Z,93.60
2017-11-07T23:37:16.432Z,93.50
2017-11-07T23:39:43.904Z,93.60
2017-11-07T23:42:11.399Z,93.60
2017-11-07T23:44:38.887Z,93.70
2017-11-07T23:47:06.370Z,93.60
2017-11-07T23:49:33.874Z,93.50
2017-11-07T23:52:02.112Z,93.20
2017-11-07T23:54:29.606Z,93.20
2017-11-07T23:56:57.904Z,92.90
2017-11-07T23:59:25.400Z,92.90
